Time;durP1;ratioP1;P1;durP2;ratioP2;P2;SDS_P1;SDS_P2;PMS_P1;PMS_P2;Temp;Humidity;BMP_temperature;BMP_pressure;BME280_temperature;BME280_humidity;BME280_pressure;Samples;Min_cycle;Max_cycle;Signal;HPM_P1;HPM_P2
2023/03/23 00:00:38;;;;;;;2.75;2.33;;;11.10;99.90;;;;;;4970992;28;20041;-82
2023/03/23 00:03:04;;;;;;;4.28;2.10;;;11.20;99.90;;;;;;4960689;28;20034;-82
2023/03/23 00:05:29;;;;;;;5.93;2.22;;;11.20;99.90;;;;;;4992644;28;20026;-81
2023/03/23 00:07:56;;;;;;;3.33;1.83;;;11.20;99.90;;;;;;4974067;28;20038;-82
2023/03/23 00:10:24;;;;;;;4.95;2.08;;;11.20;99.90;;;;;;4956004;28;20391;-81
2023/03/23 00:12:50;;;;;;;2.97;1.92;;;11.20;99.90;;;;;;4962055;28;20030;-82
2023/03/23 00:15:16;;;;;;;3.72;1.90;;;11.10;99.90;;;;;;4976303;28;20638;-81
2023/03/23 00:17:43;;;;;;;2.42;1.52;;;11.20;99.90;;;;;;4956996;28;20161;-82
2023/03/23 00:20:11;;;;;;;3.53;2.10;;;11.10;99.90;;;;;;4972501;28;20030;-82
2023/03/23 00:22:37;;;;;;;3.20;2.08;;;11.20;99.90;;;;;;4976270;28;20038;-83
2023/03/23 00:25:05;;;;;;;5.20;2.03;;;11.20;99.90;;;;;;4974459;28;20371;-80
2023/03/23 00:27:31;;;;;;;5.10;2.05;;;11.20;99.90;;;;;;4957240;28;20030;-82
2023/03/23 00:29:57;;;;;;;2.75;1.90;;;11.10;99.90;;;;;;4958773;28;20037;-82
2023/03/23 00:32:27;;;;;;;4.53;1.40;;;11.10;99.90;;;;;;4959574;28;20034;-82
2023/03/23 00:34:53;;;;;;;5.00;1.35;;;11.10;99.90;;;;;;4939677;28;20533;-82
2023/03/23 00:37:19;;;;;;;2.58;1.42;;;11.20;99.90;;;;;;4984491;28;20030;-82
2023/03/23 00:39:45;;;;;;;3.05;1.50;;;11.20;99.90;;;;;;4984596;28;20038;-82
2023/03/23 00:42:14;;;;;;;2.65;1.58;;;11.20;99.90;;;;;;4974189;28;20037;-82
2023/03/23 00:44:40;;;;;;;1.98;1.20;;;11.20;99.90;;;;;;4972876;28;20030;-82
2023/03/23 00:47:09;;;;;;;4.85;2.10;;;11.20;99.90;;;;;;4960199;28;20037;-82
2023/03/23 00:49:35;;;;;;;4.28;1.80;;;11.20;99.90;;;;;;4960684;28;20390;-82
2023/03/23 00:52:03;;;;;;;3.28;1.50;;;11.20;99.90;;;;;;4970545;28;20044;-82
2023/03/23 00:54:29;;;;;;;2.60;2.08;;;11.20;99.90;;;;;;4955187;28;20112;-83
2023/03/23 00:56:55;;;;;;;2.85;1.85;;;11.20;99.90;;;;;;4985381;28;20097;-81
2023/03/23 00:59:20;;;;;;;4.90;1.60;;;11.20;99.90;;;;;;4973036;28;20042;-81
2023/03/23 01:01:46;;;;;;;5.47;1.80;;;11.20;99.90;;;;;;4952048;28;20040;-81
2023/03/23 01:04:12;;;;;;;2.53;1.60;;;11.20;99.90;;;;;;4977637;28;20037;-80
2023/03/23 01:06:42;;;;;;;3.58;1.60;;;11.20;99.90;;;;;;4993646;28;20034;-81
2023/03/23 01:09:10;;;;;;;2.67;1.92;;;11.20;99.90;;;;;;4956323;28;20111;-81
2023/03/23 01:11:37;;;;;;;3.65;2.05;;;11.20;99.90;;;;;;4965443;28;20533;-83
2023/03/23 01:14:02;;;;;;;3.05;1.75;;;11.20;99.90;;;;;;4997061;28;20044;-82
2023/03/23 01:16:28;;;;;;;2.30;1.42;;;11.20;99.90;;;;;;4958005;28;20034;-82
2023/03/23 01:18:54;;;;;;;4.47;1.67;;;11.20;99.90;;;;;;4968567;28;20585;-81
2023/03/23 01:21:20;;;;;;;4.03;1.50;;;11.20;99.90;;;;;;4971401;28;20052;-82
2023/03/23 01:23:46;;;;;;;3.55;1.65;;;11.20;99.90;;;;;;4955450;28;20560;-82
2023/03/23 01:26:17;;;;;;;3.75;1.52;;;11.20;99.90;;;;;;4977049;28;20030;-82
2023/03/23 01:28:42;;;;;;;2.25;1.38;;;11.20;99.90;;;;;;4974116;28;20082;-83
2023/03/23 01:31:16;;;;;;;2.65;1.70;;;11.20;99.90;;;;;;4975626;28;20026;-81
2023/03/23 01:33:42;;;;;;;2.88;1.27;;;11.20;99.90;;;;;;4957076;28;20035;-81
2023/03/23 01:36:12;;;;;;;5.07;1.67;;;11.20;99.90;;;;;;4994398;28;20106;-82
2023/03/23 01:38:38;;;;;;;1.35;0.73;;;11.10;99.90;;;;;;4972878;28;20030;-82
2023/03/23 01:41:05;;;;;;;1.80;1.33;;;11.10;99.90;;;;;;4965763;28;20425;-82
2023/03/23 01:43:31;;;;;;;3.00;1.95;;;11.20;99.90;;;;;;4945529;28;20044;-82
2023/03/23 01:45:57;;;;;;;3.10;1.33;;;11.20;99.90;;;;;;4953860;28;20116;-82
2023/03/23 01:48:35;;;;;;;0.70;0.70;;;11.20;99.90;;;;;;4961732;28;20402;-82
2023/03/23 01:51:15;;;;;;;4.90;1.80;;;11.20;99.90;;;;;;4989322;28;20579;-83
2023/03/23 01:53:46;;;;;;;2.83;1.58;;;11.20;99.90;;;;;;4952471;28;20029;-83
2023/03/23 01:56:12;;;;;;;2.95;1.55;;;11.10;99.90;;;;;;4951228;28;20150;-82
2023/03/23 01:58:38;;;;;;;5.43;2.60;;;11.10;99.90;;;;;;4959352;28;20407;-82
2023/03/23 02:01:07;;;;;;;4.80;2.60;;;11.10;99.90;;;;;;4942285;28;20037;-82
2023/03/23 02:03:32;;;;;;;5.60;2.15;;;11.10;99.90;;;;;;4951257;28;20040;-82
2023/03/23 02:05:59;;;;;;;3.28;2.03;;;11.10;99.90;;;;;;4955834;28;20030;-82
2023/03/23 02:08:27;;;;;;;1.77;1.35;;;11.10;99.90;;;;;;4985827;28;20706;-81
2023/03/23 02:10:53;;;;;;;2.97;2.00;;;11.10;99.90;;;;;;4954999;28;20051;-80
2023/03/23 02:13:19;;;;;;;4.43;2.00;;;11.10;99.90;;;;;;4965024;28;20057;-81
2023/03/23 02:15:50;;;;;;;4.78;2.15;;;11.10;99.90;;;;;;4959847;28;20030;-81
2023/03/23 02:18:35;;;;;;;1.98;1.50;;;11.10;99.90;;;;;;4972352;28;20030;-82
2023/03/23 02:21:25;;;;;;;1.15;1.00;;;11.10;99.90;;;;;;4972726;28;20384;-82
2023/03/23 02:23:58;;;;;;;2.30;1.40;;;11.10;99.90;;;;;;4973195;28;20025;-80
2023/03/23 02:26:34;;;;;;;3.40;1.73;;;11.20;99.90;;;;;;4977441;28;20505;-81
2023/03/23 02:29:18;;;;;;;2.40;1.58;;;11.20;99.90;;;;;;4989694;28;20109;-81
2023/03/23 02:32:03;;;;;;;5.32;2.22;;;11.10;99.90;;;;;;4951515;28;20118;-81
2023/03/23 02:34:51;;;;;;;2.33;1.63;;;11.20;99.90;;;;;;4983329;28;20041;-81
2023/03/23 02:37:23;;;;;;;4.97;2.17;;;11.20;99.90;;;;;;4975062;28;20117;-80
2023/03/23 02:39:54;;;;;;;2.72;1.80;;;11.10;99.90;;;;;;4957590;28;20038;-81
2023/03/23 02:42:22;;;;;;;2.30;2.10;;;11.10;99.90;;;;;;4966109;28;20034;-81
2023/03/23 02:44:48;;;;;;;1.55;1.02;;;11.20;99.90;;;;;;4970472;28;20034;-80
2023/03/23 02:47:19;;;;;;;3.28;1.40;;;11.10;99.90;;;;;;4967397;28;20044;-81
2023/03/23 02:49:45;;;;;;;5.00;1.90;;;11.10;99.90;;;;;;4986487;28;20062;-82
2023/03/23 02:52:14;;;;;;;3.15;2.50;;;11.10;99.90;;;;;;4956953;28;20037;-82
2023/03/23 02:54:42;;;;;;;4.95;2.10;;;11.10;99.90;;;;;;4958985;28;20035;-81
2023/03/23 02:57:08;;;;;;;4.43;2.40;;;11.10;99.90;;;;;;4951845;28;20050;-81
2023/03/23 02:59:33;;;;;;;3.05;1.55;;;11.10;99.90;;;;;;4972803;28;20053;-82
2023/03/23 03:02:06;;;;;;;4.18;2.22;;;11.00;99.90;;;;;;4981683;28;20046;-81
2023/03/23 03:04:33;;;;;;;2.17;1.77;;;11.00;99.90;;;;;;4964934;28;20498;-82
2023/03/23 03:07:21;;;;;;;4.32;1.65;;;11.10;99.90;;;;;;4973102;28;20045;-83
2023/03/23 03:09:48;;;;;;;5.18;2.15;;;11.10;99.90;;;;;;4989678;28;20409;-82
2023/03/23 03:12:41;;;;;;;4.25;2.13;;;11.10;99.90;;;;;;4978355;28;20030;-81
2023/03/23 03:15:26;;;;;;;2.90;1.60;;;11.00;99.90;;;;;;4992617;28;20041;-81
2023/03/23 03:17:57;;;;;;;1.90;1.55;;;11.00;99.90;;;;;;5010516;28;20498;-82
2023/03/23 03:20:25;;;;;;;1.63;1.15;;;11.10;99.90;;;;;;4992197;28;20042;-82
2023/03/23 03:22:52;;;;;;;3.40;1.35;;;11.00;99.90;;;;;;4953134;28;20049;-82
2023/03/23 03:25:18;;;;;;;4.10;2.30;;;11.10;99.90;;;;;;4975757;28;20495;-80
2023/03/23 03:27:45;;;;;;;3.75;2.22;;;11.10;99.90;;;;;;4964324;28;20023;-82
2023/03/23 03:30:11;;;;;;;2.03;1.70;;;11.00;99.90;;;;;;4977624;28;20097;-82
2023/03/23 03:32:41;;;;;;;4.32;1.80;;;11.10;99.90;;;;;;4989715;28;20512;-82
2023/03/23 03:35:06;;;;;;;2.40;1.85;;;11.10;99.90;;;;;;4977864;28;20493;-81
2023/03/23 03:37:37;;;;;;;1.55;1.23;;;11.10;99.90;;;;;;4964293;28;20122;-82
2023/03/23 03:40:10;;;;;;;2.95;1.25;;;11.10;99.90;;;;;;4968515;28;20122;-81
2023/03/23 03:42:36;;;;;;;3.22;2.10;;;11.00;99.90;;;;;;4976955;28;20046;-80
2023/03/23 03:45:03;;;;;;;5.82;1.90;;;11.10;99.90;;;;;;4963909;28;20129;-81
2023/03/23 03:47:29;;;;;;;2.72;1.20;;;11.10;99.90;;;;;;4974034;28;20037;-80
2023/03/23 03:49:55;;;;;;;2.30;1.83;;;11.10;99.90;;;;;;4961243;28;20037;-81
2023/03/23 03:52:20;;;;;;;2.72;1.75;;;11.20;99.90;;;;;;4973730;28;20038;-81
2023/03/23 03:54:46;;;;;;;1.35;0.93;;;11.20;99.90;;;;;;4973871;28;20034;-83
2023/03/23 03:57:12;;;;;;;2.45;1.92;;;11.20;99.90;;;;;;4993516;28;20037;-80
2023/03/23 03:59:38;;;;;;;2.05;1.30;;;11.20;99.90;;;;;;4976893;28;20085;-80
2023/03/23 04:02:03;;;;;;;1.42;1.33;;;11.20;99.90;;;;;;4976016;28;20046;-81
2023/03/23 04:04:29;;;;;;;2.40;1.90;;;11.20;99.90;;;;;;4959772;28;20128;-81
2023/03/23 04:06:54;;;;;;;2.80;1.50;;;11.20;99.90;;;;;;4975590;28;20066;-79
2023/03/23 04:09:21;;;;;;;1.25;1.10;;;11.20;99.90;;;;;;4966999;28;20486;-80
2023/03/23 04:11:46;;;;;;;7.40;1.40;;;11.20;99.90;;;;;;4984202;28;20491;-81
2023/03/23 04:14:12;;;;;;;1.90;1.20;;;11.20;99.90;;;;;;4973661;28;20110;-81
2023/03/23 04:16:37;;;;;;;1.42;1.30;;;11.20;99.90;;;;;;4966822;28;20038;-81
2023/03/23 04:19:03;;;;;;;2.15;1.63;;;11.30;99.90;;;;;;4958481;28;20030;-81
2023/03/23 04:21:29;;;;;;;3.83;1.58;;;11.30;99.90;;;;;;4971240;28;20095;-81
2023/03/23 04:23:59;;;;;;;3.08;1.70;;;11.30;99.90;;;;;;4960283;28;20042;-81
2023/03/23 04:26:28;;;;;;;4.25;1.58;;;11.30;99.90;;;;;;4970907;28;20058;-81
2023/03/23 04:28:55;;;;;;;2.20;1.33;;;11.30;99.90;;;;;;4958941;28;20772;-81
2023/03/23 04:31:24;;;;;;;1.50;1.20;;;11.30;99.90;;;;;;4990918;28;20065;-80
2023/03/23 04:33:52;;;;;;;5.60;2.03;;;11.30;99.90;;;;;;4986280;28;20034;-81
2023/03/23 04:36:17;;;;;;;3.38;2.03;;;11.30;99.90;;;;;;4952532;28;20132;-81
2023/03/23 04:38:43;;;;;;;3.60;1.92;;;11.30;99.90;;;;;;4974955;28;20109;-81
2023/03/23 04:41:09;;;;;;;2.13;1.27;;;11.30;99.90;;;;;;4958540;28;20034;-80
2023/03/23 04:43:41;;;;;;;2.90;1.40;;;11.40;99.90;;;;;;4976203;28;20707;-79
2023/03/23 04:46:08;;;;;;;2.58;1.67;;;11.40;99.90;;;;;;4981279;28;20157;-80
2023/03/23 04:48:34;;;;;;;5.20;2.08;;;11.40;99.90;;;;;;4962079;28;20048;-81
2023/03/23 04:51:02;;;;;;;3.75;1.70;;;11.40;99.90;;;;;;4951108;28;20503;-81
2023/03/23 04:53:29;;;;;;;2.60;1.10;;;11.30;99.90;;;;;;4979639;28;20434;-81
2023/03/23 04:55:54;;;;;;;3.35;1.98;;;11.50;99.90;;;;;;4948790;28;20030;-80
2023/03/23 04:58:20;;;;;;;1.95;1.75;;;11.40;99.90;;;;;;4965703;28;20867;-80
2023/03/23 05:00:49;;;;;;;3.38;1.63;;;11.40;99.90;;;;;;4995892;28;20066;-81
2023/03/23 05:03:18;;;;;;;2.55;1.30;;;11.40;99.90;;;;;;4966709;28;20075;-80
2023/03/23 05:05:46;;;;;;;2.45;1.35;;;11.40;99.90;;;;;;4982191;28;20049;-80
2023/03/23 05:08:13;;;;;;;3.75;1.42;;;11.40;99.90;;;;;;4951343;28;20490;-82
2023/03/23 05:10:38;;;;;;;1.77;1.02;;;11.40;99.90;;;;;;4974921;28;20113;-80
2023/03/23 05:13:04;;;;;;;2.30;1.40;;;11.40;99.90;;;;;;4951490;28;20192;-80
2023/03/23 05:15:30;;;;;;;3.13;0.95;;;11.50;99.90;;;;;;4970063;28;20041;-81
2023/03/23 05:17:55;;;;;;;1.42;1.23;;;11.50;99.90;;;;;;4984700;28;20045;-80
2023/03/23 05:20:21;;;;;;;2.00;1.25;;;11.40;99.90;;;;;;4957581;28;20030;-80
2023/03/23 05:22:50;;;;;;;3.55;1.60;;;11.50;99.90;;;;;;4963353;28;20030;-80
2023/03/23 05:25:18;;;;;;;0.82;0.70;;;11.50;99.90;;;;;;4970816;28;20520;-80
2023/03/23 05:27:48;;;;;;;3.45;1.00;;;11.50;99.90;;;;;;4959838;28;20611;-79
2023/03/23 05:30:16;;;;;;;4.00;1.60;;;11.50;99.90;;;;;;4971209;28;20093;-81
2023/03/23 05:32:42;;;;;;;3.38;1.27;;;11.50;99.90;;;;;;4961976;28;20389;-81
2023/03/23 05:35:08;;;;;;;2.15;1.77;;;11.50;99.90;;;;;;4979474;28;20083;-80
2023/03/23 05:37:33;;;;;;;1.65;1.33;;;11.50;99.90;;;;;;4986785;28;20053;-81
2023/03/23 05:40:04;;;;;;;2.90;1.20;;;11.50;99.90;;;;;;4971261;28;20018;-80
2023/03/23 05:42:30;;;;;;;1.60;1.20;;;11.50;99.90;;;;;;4951491;28;20430;-81
2023/03/23 05:44:56;;;;;;;4.38;1.48;;;11.40;99.90;;;;;;4964155;28;20064;-80
2023/03/23 05:47:22;;;;;;;2.13;1.35;;;11.50;99.90;;;;;;4954945;28;20065;-81
2023/03/23 05:49:47;;;;;;;1.48;1.15;;;11.50;99.90;;;;;;4967722;28;20030;-80
2023/03/23 05:52:13;;;;;;;2.30;0.90;;;11.60;99.90;;;;;;4957462;28;20371;-81
2023/03/23 05:54:38;;;;;;;3.92;1.27;;;11.60;99.90;;;;;;4965437;28;20030;-80
2023/03/23 05:57:05;;;;;;;1.85;1.20;;;11.60;99.90;;;;;;4961946;28;20048;-80
2023/03/23 05:59:30;;;;;;;1.50;1.00;;;11.60;99.90;;;;;;4982464;28;20482;-79
2023/03/23 06:01:57;;;;;;;2.45;0.98;;;11.50;99.90;;;;;;4956046;28;20042;-81
2023/03/23 06:04:24;;;;;;;2.65;1.50;;;11.60;99.90;;;;;;4952615;28;20088;-80
2023/03/23 06:06:51;;;;;;;1.60;1.15;;;11.60;99.90;;;;;;4957683;28;20483;-81
2023/03/23 06:09:17;;;;;;;3.55;1.70;;;11.60;99.90;;;;;;4960222;28;20049;-81
2023/03/23 06:11:43;;;;;;;3.88;1.30;;;11.60;99.90;;;;;;4971776;28;20030;-80
2023/03/23 06:14:09;;;;;;;3.67;1.80;;;11.60;99.90;;;;;;4966032;28;20632;-81
2023/03/23 06:16:35;;;;;;;2.25;1.45;;;11.70;99.90;;;;;;4962910;28;20544;-77
2023/03/23 06:19:00;;;;;;;3.17;1.50;;;11.60;99.90;;;;;;4970069;28;20104;-80
2023/03/23 06:21:26;;;;;;;1.15;1.02;;;11.70;99.90;;;;;;4968962;28;20398;-80
2023/03/23 06:23:52;;;;;;;2.50;1.42;;;11.60;99.90;;;;;;4966581;28;20046;-79
2023/03/23 06:26:19;;;;;;;2.15;1.20;;;11.60;99.90;;;;;;4952272;28;20092;-79
2023/03/23 06:28:45;;;;;;;3.30;1.63;;;11.70;99.90;;;;;;4957819;28;20033;-79
2023/03/23 06:31:11;;;;;;;3.25;1.83;;;11.70;99.90;;;;;;4957067;28;20687;-78
2023/03/23 06:33:37;;;;;;;1.85;1.13;;;11.70;99.90;;;;;;4958707;28;20030;-79
2023/03/23 06:36:03;;;;;;;4.63;1.52;;;11.70;99.90;;;;;;4949739;28;20049;-80
2023/03/23 06:38:30;;;;;;;3.70;1.42;;;11.80;99.90;;;;;;4958976;28;20493;-80
2023/03/23 06:40:56;;;;;;;1.33;0.80;;;11.80;99.90;;;;;;4980306;28;20053;-79
2023/03/23 06:43:22;;;;;;;2.35;1.17;;;11.80;99.90;;;;;;4975969;28;20034;-80
2023/03/23 06:45:48;;;;;;;2.33;1.40;;;11.90;99.90;;;;;;4968175;28;20120;-79
2023/03/23 06:48:13;;;;;;;2.47;1.73;;;11.90;99.90;;;;;;4958840;28;20396;-79
2023/03/23 06:50:43;;;;;;;3.25;1.27;;;11.90;99.90;;;;;;4969146;28;20394;-77
2023/03/23 06:53:08;;;;;;;3.90;0.90;;;11.90;99.90;;;;;;4964644;28;20025;-79
2023/03/23 06:55:34;;;;;;;2.63;1.13;;;11.90;99.90;;;;;;4955521;28;20437;-80
2023/03/23 06:58:01;;;;;;;5.20;1.63;;;12.00;99.90;;;;;;4965879;28;20030;-80
2023/03/23 07:00:26;;;;;;;2.90;1.40;;;12.00;99.90;;;;;;4983263;28;20029;-80
2023/03/23 07:02:52;;;;;;;3.67;0.73;;;12.10;99.90;;;;;;4981813;28;20070;-80
2023/03/23 07:05:18;;;;;;;6.13;1.77;;;12.10;99.90;;;;;;4996006;28;20117;-79
2023/03/23 07:07:44;;;;;;;5.45;1.90;;;12.10;99.90;;;;;;4977035;28;20038;-80
2023/03/23 07:10:10;;;;;;;5.05;2.10;;;12.20;99.90;;;;;;4972497;28;20496;-79
2023/03/23 07:12:35;;;;;;;1.85;0.95;;;12.20;99.90;;;;;;4964288;28;20038;-81
2023/03/23 07:15:02;;;;;;;8.02;1.20;;;12.20;99.90;;;;;;4978774;28;20066;-81
2023/03/23 07:17:28;;;;;;;8.30;1.23;;;12.20;99.90;;;;;;4956316;28;20071;-81
2023/03/23 07:19:54;;;;;;;4.43;1.70;;;12.30;99.90;;;;;;4969046;28;20093;-81
2023/03/23 07:22:20;;;;;;;2.85;1.38;;;12.40;99.90;;;;;;4978809;28;20039;-80
2023/03/23 07:24:45;;;;;;;8.25;1.20;;;12.30;99.90;;;;;;4957646;28;20041;-80
2023/03/23 07:27:11;;;;;;;2.95;1.15;;;12.30;99.90;;;;;;4980799;28;20038;-80
2023/03/23 07:29:38;;;;;;;1.65;1.23;;;12.40;99.90;;;;;;4976556;28;20049;-81
2023/03/23 07:32:04;;;;;;;2.67;0.93;;;12.30;99.90;;;;;;4955598;28;20033;-81
2023/03/23 07:34:31;;;;;;;5.68;1.88;;;12.40;99.90;;;;;;4986840;28;20088;-80
2023/03/23 07:36:57;;;;;;;2.78;1.00;;;12.40;99.90;;;;;;4975624;28;20053;-81
2023/03/23 07:39:40;;;;;;;2.95;1.30;;;12.50;99.90;;;;;;4979285;28;20031;-80
2023/03/23 07:42:07;;;;;;;3.15;1.10;;;12.50;99.90;;;;;;4965197;28;20038;-80
2023/03/23 07:44:33;;;;;;;2.05;0.93;;;12.50;99.90;;;;;;4964082;28;20042;-81
2023/03/23 07:46:58;;;;;;;2.15;0.82;;;12.50;99.90;;;;;;4972210;28;20085;-81
2023/03/23 07:49:24;;;;;;;3.53;1.30;;;12.60;99.90;;;;;;4969066;28;20038;-80
2023/03/23 07:51:50;;;;;;;1.98;1.10;;;12.50;99.90;;;;;;4977563;28;20044;-80
2023/03/23 07:54:16;;;;;;;1.35;0.75;;;12.50;99.90;;;;;;4964322;28;20046;-80
2023/03/23 07:56:42;;;;;;;2.90;1.48;;;12.60;99.90;;;;;;4962170;28;20065;-81
2023/03/23 07:59:09;;;;;;;3.47;1.05;;;12.60;99.90;;;;;;4957963;28;20029;-81
2023/03/23 08:01:35;;;;;;;2.20;1.23;;;12.60;99.90;;;;;;4981270;28;20048;-81
2023/03/23 08:04:00;;;;;;;3.05;1.27;;;12.60;99.90;;;;;;4982090;28;20037;-80
2023/03/23 08:06:26;;;;;;;2.13;0.95;;;12.70;99.90;;;;;;4990643;28;20080;-79
2023/03/23 08:08:52;;;;;;;5.50;1.20;;;12.70;99.90;;;;;;4962304;28;20049;-80
2023/03/23 08:11:24;;;;;;;1.70;1.15;;;12.70;99.90;;;;;;5004021;28;20049;-80
2023/03/23 08:13:50;;;;;;;2.70;1.10;;;12.70;99.90;;;;;;4960094;28;20033;-80
2023/03/23 08:16:15;;;;;;;4.32;1.35;;;12.80;99.90;;;;;;4982602;28;20034;-80
2023/03/23 08:18:43;;;;;;;1.35;0.82;;;12.80;99.90;;;;;;4984576;28;20452;-79
2023/03/23 08:21:09;;;;;;;2.33;0.85;;;12.80;99.90;;;;;;4986453;28;20033;-80
2023/03/23 08:23:36;;;;;;;3.97;1.20;;;12.80;99.90;;;;;;4983026;28;20025;-80
2023/03/23 08:26:03;;;;;;;2.45;1.33;;;12.80;99.90;;;;;;4965847;28;20030;-79
2023/03/23 08:28:29;;;;;;;2.80;0.80;;;12.90;99.90;;;;;;4978991;28;20022;-79
2023/03/23 08:30:55;;;;;;;4.65;1.10;;;13.00;99.90;;;;;;4990656;28;20044;-80
2023/03/23 08:33:21;;;;;;;0.82;0.65;;;13.00;99.90;;;;;;4975010;28;20026;-80
2023/03/23 08:35:54;;;;;;;1.80;0.90;;;13.10;99.90;;;;;;4962312;28;20066;-80
2023/03/23 08:38:21;;;;;;;1.02;0.60;;;13.00;99.90;;;;;;4993901;28;20109;-79
2023/03/23 08:40:47;;;;;;;2.83;0.95;;;13.00;99.90;;;;;;4969598;28;20034;-81
2023/03/23 08:43:13;;;;;;;2.70;1.25;;;13.10;99.90;;;;;;4957464;28;20063;-80
2023/03/23 08:45:39;;;;;;;2.92;1.30;;;13.30;99.90;;;;;;4982390;28;20057;-80
2023/03/23 08:48:07;;;;;;;3.50;1.17;;;13.30;99.90;;;;;;4985068;28;20034;-81
2023/03/23 08:50:32;;;;;;;1.98;1.20;;;13.40;99.90;;;;;;5008228;28;20025;-80
2023/03/23 08:52:58;;;;;;;3.03;0.65;;;13.50;99.90;;;;;;4989214;28;20122;-79
2023/03/23 08:55:26;;;;;;;5.35;1.08;;;13.50;99.90;;;;;;4971953;28;20026;-80
2023/03/23 08:57:51;;;;;;;0.50;0.40;;;13.60;99.90;;;;;;4979717;28;20050;-79
2023/03/23 09:00:19;;;;;;;4.32;1.38;;;13.60;99.90;;;;;;4980177;28;20438;-80
2023/03/23 09:02:48;;;;;;;6.55;1.48;;;13.70;99.90;;;;;;4983803;28;20045;-79
2023/03/23 09:05:15;;;;;;;0.57;0.43;;;13.70;99.90;;;;;;4967727;28;20104;-79
2023/03/23 09:07:43;;;;;;;1.92;0.68;;;13.70;99.90;;;;;;4961471;28;20037;-80
2023/03/23 09:10:09;;;;;;;2.72;0.98;;;13.70;99.90;;;;;;4971032;28;20508;-80
2023/03/23 09:12:35;;;;;;;8.23;1.38;;;13.80;99.90;;;;;;4970296;28;20056;-80
2023/03/23 09:15:08;;;;;;;1.92;0.68;;;13.80;99.90;;;;;;4976516;28;20118;-78
2023/03/23 09:17:37;;;;;;;4.25;0.90;;;13.90;99.90;;;;;;4984341;28;20160;-79
2023/03/23 09:20:07;;;;;;;6.63;0.85;;;13.90;99.90;;;;;;4961333;28;20133;-79
2023/03/23 09:22:33;;;;;;;2.88;1.05;;;13.80;99.90;;;;;;4975634;28;20038;-78
2023/03/23 09:24:58;;;;;;;3.00;1.23;;;13.90;99.90;;;;;;4966988;28;20118;-78
2023/03/23 09:27:25;;;;;;;2.45;0.93;;;13.80;99.90;;;;;;4979406;28;20042;-77
2023/03/23 09:29:51;;;;;;;3.38;1.23;;;13.80;99.90;;;;;;4955838;28;20467;-78
2023/03/23 09:32:16;;;;;;;0.88;0.43;;;13.90;99.90;;;;;;4971814;28;20037;-77
2023/03/23 09:34:42;;;;;;;2.83;1.15;;;13.90;99.90;;;;;;4966586;28;20112;-77
2023/03/23 09:37:08;;;;;;;2.85;0.90;;;13.70;99.90;;;;;;4950238;28;20047;-79
2023/03/23 09:39:33;;;;;;;3.28;1.02;;;13.90;99.90;;;;;;4959073;28;20041;-79
2023/03/23 09:42:03;;;;;;;7.75;1.10;;;14.00;99.90;;;;;;4967315;28;20454;-78
2023/03/23 09:44:47;;;;;;;4.03;1.10;;;13.90;99.90;;;;;;4969163;28;20037;-79
2023/03/23 09:47:24;;;;;;;1.17;0.47;;;13.90;99.90;;;;;;4982219;28;20069;-78
2023/03/23 09:50:02;;;;;;;6.18;1.10;;;14.00;99.90;;;;;;4984857;28;20030;-78
2023/03/23 09:52:37;;;;;;;3.17;1.05;;;13.80;99.90;;;;;;4999743;28;20029;-79
2023/03/23 09:55:03;;;;;;;5.93;1.35;;;13.90;99.90;;;;;;4964419;28;20038;-78
2023/03/23 09:57:52;;;;;;;4.30;0.80;;;13.80;99.90;;;;;;4951995;28;20517;-77
2023/03/23 10:00:31;;;;;;;6.50;2.33;;;13.80;99.90;;;;;;4967116;28;20045;-77
2023/03/23 10:03:27;;;;;;;3.33;0.93;;;13.80;99.90;;;;;;4954904;28;20064;-77
2023/03/23 10:05:54;;;;;;;3.63;1.45;;;13.80;99.90;;;;;;4938265;28;20058;-78
2023/03/23 10:08:24;;;;;;;5.40;1.58;;;13.60;99.90;;;;;;4974814;28;20109;-77
2023/03/23 10:11:17;;;;;;;5.88;1.95;;;13.50;99.90;;;;;;4964503;28;20585;-77
2023/03/23 10:14:20;;;;;;;2.03;0.70;;;13.40;99.90;;;;;;5002404;28;20034;-77
2023/03/23 10:17:17;;;;;;;8.07;1.17;;;13.10;99.90;;;;;;4986802;28;20052;-77
2023/03/23 10:19:51;;;;;;;4.45;0.98;;;12.90;99.90;;;;;;4941633;28;20038;-78
2023/03/23 10:22:23;;;;;;;2.95;0.47;;;12.70;99.90;;;;;;4996207;28;20129;-77
2023/03/23 10:25:15;;;;;;;4.85;0.95;;;12.60;99.90;;;;;;4987629;28;20053;-77
2023/03/23 10:27:54;;;;;;;4.40;1.05;;;12.50;99.90;;;;;;4980585;28;20168;-77
2023/03/23 10:30:30;;;;;;;2.90;1.05;;;12.60;99.90;;;;;;5004113;28;20057;-78
2023/03/23 10:33:11;;;;;;;3.28;0.93;;;12.60;99.90;;;;;;4969684;28;20062;-78
2023/03/23 10:35:40;;;;;;;2.50;0.88;;;12.50;99.90;;;;;;4974151;28;20418;-78
2023/03/23 10:38:28;;;;;;;4.10;0.90;;;12.50;99.90;;;;;;4966810;28;20038;-78
2023/03/23 10:40:58;;;;;;;3.10;1.02;;;12.50;99.90;;;;;;4975038;28;20669;-78
2023/03/23 10:43:24;;;;;;;3.65;0.95;;;12.50;99.90;;;;;;4957433;28;20493;-78
2023/03/23 10:45:59;;;;;;;3.35;1.00;;;12.50;99.90;;;;;;4956024;28;20026;-78
2023/03/23 10:48:30;;;;;;;2.47;1.02;;;12.50;99.90;;;;;;4976098;28;20537;-77
2023/03/23 10:50:58;;;;;;;2.60;1.00;;;12.50;99.90;;;;;;4956029;28;20049;-77
2023/03/23 10:53:32;;;;;;;3.42;1.92;;;12.50;99.90;;;;;;4982257;28;20121;-78
2023/03/23 10:55:58;;;;;;;7.07;1.77;;;12.40;99.90;;;;;;4984531;28;20034;-77
2023/03/23 10:58:31;;;;;;;3.80;1.38;;;12.40;99.90;;;;;;4960173;28;20037;-77
2023/03/23 11:00:58;;;;;;;3.75;2.30;;;12.40;99.90;;;;;;4991012;28;20054;-75
2023/03/23 11:03:42;;;;;;;0.65;0.43;;;12.50;99.90;;;;;;4960422;28;20023;-77
2023/03/23 11:06:20;;;;;;;1.55;0.73;;;12.60;99.90;;;;;;4976383;28;20109;-78
2023/03/23 11:09:17;;;;;;;7.07;1.85;;;12.60;99.90;;;;;;4966599;28;20502;-78
2023/03/23 11:11:50;;;;;;;2.40;1.75;;;12.60;99.90;;;;;;4954401;28;20040;-78
2023/03/23 11:14:25;;;;;;;4.20;2.15;;;12.50;99.90;;;;;;4959443;28;20394;-78
2023/03/23 11:16:53;;;;;;;6.18;1.75;;;12.40;99.90;;;;;;4991737;28;20022;-78
2023/03/23 11:19:24;;;;;;;2.03;1.40;;;12.30;99.90;;;;;;4961543;28;20038;-78
2023/03/23 11:21:52;;;;;;;4.70;2.45;;;12.30;99.90;;;;;;4982246;28;20035;-78
2023/03/23 11:24:18;;;;;;;5.70;3.70;;;12.20;99.90;;;;;;4978331;28;21088;-78
2023/03/23 11:26:44;;;;;;;4.50;2.25;;;12.10;99.90;;;;;;4954468;28;20025;-78
2023/03/23 11:29:21;;;;;;;3.60;1.70;;;12.00;99.90;;;;;;4954845;28;20037;-77
2023/03/23 11:32:13;;;;;;;2.95;1.73;;;12.00;99.90;;;;;;4955237;28;20054;-77
2023/03/23 11:34:46;;;;;;;5.05;1.52;;;12.00;99.90;;;;;;4961310;28;20121;-77
2023/03/23 11:37:15;;;;;;;1.27;0.88;;;12.00;99.90;;;;;;4973193;28;20030;-77
2023/03/23 11:39:59;;;;;;;1.15;0.85;;;12.00;99.90;;;;;;4984025;28;20033;-77
2023/03/23 11:42:34;;;;;;;3.60;1.10;;;11.90;99.90;;;;;;5006104;28;20048;-77
2023/03/23 11:45:45;;;;;;;3.20;1.23;;;11.90;99.90;;;;;;4981331;28;20037;-77
2023/03/23 11:48:28;;;;;;;3.50;0.88;;;12.00;99.90;;;;;;4988317;28;20038;-76
2023/03/23 11:50:58;;;;;;;4.75;0.90;;;11.90;99.90;;;;;;4993206;28;20065;-77
2023/03/23 11:54:01;;;;;;;1.23;0.85;;;11.90;99.90;;;;;;4960108;28;20038;-78
2023/03/23 11:56:30;;;;;;;2.45;0.80;;;11.90;99.90;;;;;;5003343;28;21656;-77
2023/03/23 11:58:57;;;;;;;1.23;0.63;;;11.90;99.90;;;;;;4961191;28;20716;-77
2023/03/23 12:01:32;;;;;;;1.98;0.70;;;11.80;99.90;;;;;;4973514;28;20038;-77
2023/03/23 12:04:21;;;;;;;1.47;1.03;;;12.10;99.90;;;;;;4993335;28;20041;-77
2023/03/23 12:07:00;;;;;;;3.80;0.80;;;12.30;99.90;;;;;;4993256;28;20507;-78
2023/03/23 12:09:55;;;;;;;2.63;0.75;;;12.50;99.90;;;;;;5007016;28;20041;-77
2023/03/23 12:12:46;;;;;;;0.77;0.60;;;12.40;99.90;;;;;;4984826;28;20034;-77
2023/03/23 12:15:39;;;;;;;2.45;0.90;;;12.40;99.90;;;;;;4977538;28;20038;-77
2023/03/23 12:18:11;;;;;;;1.00;0.60;;;12.40;99.90;;;;;;4963066;28;20057;-77
2023/03/23 12:21:07;;;;;;;0.82;0.60;;;12.40;99.90;;;;;;5002534;28;20041;-77
2023/03/23 12:23:46;;;;;;;2.33;0.80;;;12.30;99.90;;;;;;4984991;28;20048;-77
2023/03/23 12:26:19;;;;;;;3.00;1.13;;;12.50;99.90;;;;;;4976682;28;20036;-78
2023/03/23 12:28:50;;;;;;;2.40;0.65;;;12.60;99.90;;;;;;4971736;28;20038;-78
2023/03/23 12:31:37;;;;;;;1.90;0.73;;;12.60;99.90;;;;;;4986731;28;20030;-77
2023/03/23 12:34:24;;;;;;;1.52;0.50;;;12.60;99.90;;;;;;4987332;28;20113;-76
2023/03/23 12:37:12;;;;;;;0.73;0.60;;;12.50;99.90;;;;;;4979475;28;20043;-77
2023/03/23 12:39:53;;;;;;;2.38;0.70;;;12.30;99.90;;;;;;5002643;28;20367;-76
2023/03/23 12:42:50;;;;;;;2.28;0.73;;;12.20;99.90;;;;;;4993408;28;20042;-76
2023/03/23 12:45:45;;;;;;;1.48;0.93;;;12.20;99.90;;;;;;4971570;28;20414;-77
2023/03/23 12:48:18;;;;;;;1.63;0.98;;;12.20;99.90;;;;;;4994278;28;20068;-77
2023/03/23 12:50:58;;;;;;;0.63;0.60;;;12.20;99.90;;;;;;4970545;28;20056;-77
2023/03/23 12:53:28;;;;;;;0.70;0.60;;;12.20;99.90;;;;;;4961628;28;20108;-77
2023/03/23 12:56:09;;;;;;;0.60;0.50;;;12.20;99.90;;;;;;4979264;28;20038;-77
2023/03/23 12:58:40;;;;;;;1.27;1.00;;;12.20;99.90;;;;;;4995129;28;20466;-77
2023/03/23 13:01:13;;;;;;;2.53;1.00;;;12.20;99.90;;;;;;4976410;28;20137;-77
2023/03/23 13:03:47;;;;;;;2.45;1.00;;;12.30;99.90;;;;;;4993757;28;20026;-76